Аскан

Карта отелей и гостиниц, располагающихся рядом с аэропортом Аскан :

Аскан Хабаровский край 47° 49' 31.08" N, 135° 7' 28.8012" E
Аскан Хабаровский край 47° 49' 31.08" N, 135° 7' 28.8012" E
Код аэродрома ИКАО: 
HGA4
Код аэродрома RU: 
ХГА4
Координаты: 
N47.82530° E135.12467°
Превышение над уровнем моря : 
66
Основная полоса: 
16/34
Курс магнитный: 
155,1/335,1
Длина основной ВПП: 
23
Ширина основной ВПП: 
23
Покрытие основной ВПП: 
Твёрдое
Освещение ВПП: 
Нет
Тип: 
Вертодром
Класс аэродрома: 
Принадлежность: 
ГА
Статус: 
Действующий
Сайт: 
E-mail аэродрома: 
Страна: 
Россия
Регион: 
Хабаровский край
Город: 
Дополнительная информация: 
Оператор: нет данных.

Найти трансфер

С помощью этой формы Вы можете найти трансфер из аэропорта Аскан в город, аэропорт или вокзал:

Карта места

Javascript is required to view this map.

Погода в аэропортах:

Авиационная погода в Якутске

Регион: 
Погода METAR: 
UEEE 241700Z 06003MPS 0800 R23L/1800N FU VV004 03/M01 Q1027 R23L/09//60 NOSIG RMK QBB120 QFE761
Время наблюдения: 
2020-09-24T17:00:00Z
Температура C: 
3.0
Точка росы: 
-1.0
Направление ветра: 
60
Скорость ветра (узлы): 
6
Метеорологическая видимость: 
0.5
Явления погоды: 
FU
Условия полета: 
LIFR
Аэропорт подробнее: 

Авиационная погода в аэропорту Алыкель

Регион: 
Погода METAR: 
UOOO 241700Z 18003MPS 9999 -RA BKN019 06/05 Q1011 R19/29//50 NOSIG RMK QFE742/0989
Время наблюдения: 
2020-09-24T17:00:00Z
Температура C: 
6.0
Точка росы: 
5.0
Направление ветра: 
180
Скорость ветра (узлы): 
6
Метеорологическая видимость: 
6.21
Явления погоды: 
-RA
Условия полета: 
MVFR
Аэропорт подробнее: 

Авиационная погода в Йоэнсуу

Регион: 
Погода METAR: 
EFJO 241650Z AUTO 13005KT 1700 BCFG NSC 13/13 Q1008
Время наблюдения: 
2020-09-24T16:50:00Z
Температура C: 
13.0
Точка росы: 
13.0
Направление ветра: 
130
Скорость ветра (узлы): 
5
Метеорологическая видимость: 
1.06
Явления погоды: 
BCFG
Условия полета: 
IFR

Авиационная погода в Абакане

Регион: 
Погода METAR: 
UNAA 241700Z 26007MPS 9999 -SHRA SCT041CB 09/06 Q1003 R20/CLRD65 TEMPO 27010G17MPS RMK QFE730
Время наблюдения: 
2020-09-24T17:00:00Z
Температура C: 
9.0
Точка росы: 
6.0
Направление ветра: 
260
Скорость ветра (узлы): 
14
Метеорологическая видимость: 
6.21
Явления погоды: 
-SHRA
Условия полета: 
VFR
Аэропорт подробнее: